Karpathos, Greece
Current Conditions -  °F | °C
As of 8:50 PM on Friday 28 Nov 2014 (Local Time) from LGRP Reporting Station
Broken Clouds Broken Clouds  
Wind Chill: 61°   Ceiling: 2000
Heat Index: 61°   Visibility: 6mi
Dew Point: 57°   Wind: 1mph
Humidity: 88%   Direction: NA
Pressure: 30.21"   Gusts: NA
Location:  35.5°N, 27.23°E
Report Text: LGRP 281750Z VRB01KT 9999 FEW012 BKN020 16/14 Q1023 NOSIG
Loading
Personal Weather Stations






























Interactive Weather Map New forecast layout! Learn more

10-Day Weather Forecast

Advertisements
Track Severe Weather on mobile